createdAt,value
2018-09-06T00:00:48.837Z,12.00
2018-09-06T00:03:17.223Z,12.47
2018-09-06T00:05:45.537Z,11.63
2018-09-06T00:08:13.846Z,11.70
2018-09-06T00:10:42.289Z,11.63
2018-09-06T00:13:10.693Z,11.10
2018-09-06T00:15:39.048Z,11.73
2018-09-06T00:18:07.411Z,12.00
2018-09-06T00:20:35.720Z,10.83
2018-09-06T00:23:04.094Z,11.43
2018-09-06T00:25:33.071Z,11.37
2018-09-06T00:28:01.578Z,12.20
2018-09-06T00:30:29.979Z,12.20
2018-09-06T00:35:32.999Z,10.67
2018-09-06T00:38:01.768Z,11.83
2018-09-06T00:40:30.070Z,11.50
2018-09-06T00:42:58.400Z,11.53
2018-09-06T00:45:26.692Z,11.97
2018-09-06T00:47:55.075Z,12.03
2018-09-06T00:50:23.358Z,11.13
2018-09-06T00:52:52.680Z,11.67
2018-09-06T00:55:21.531Z,11.97
2018-09-06T00:57:49.822Z,12.40
2018-09-06T01:00:18.168Z,12.27
2018-09-06T01:02:46.490Z,12.17
2018-09-06T01:05:14.778Z,12.27
2018-09-06T01:07:43.098Z,12.33
2018-09-06T01:10:11.444Z,11.70
2018-09-06T01:12:39.783Z,12.43
2018-09-06T01:15:08.112Z,12.50
2018-09-06T01:17:36.447Z,10.83
2018-09-06T01:20:04.836Z,12.27
2018-09-06T01:22:33.196Z,12.03
2018-09-06T01:25:01.552Z,11.27
2018-09-06T01:27:29.877Z,11.47
2018-09-06T01:29:58.188Z,10.87
2018-09-06T01:32:26.527Z,11.50
2018-09-06T01:34:54.804Z,10.93
2018-09-06T01:37:23.109Z,11.47
2018-09-06T01:39:51.393Z,11.37
2018-09-06T01:42:19.707Z,11.70
2018-09-06T01:44:48.041Z,11.00
2018-09-06T01:47:16.364Z,10.53
2018-09-06T01:49:44.699Z,11.40
2018-09-06T01:52:13.031Z,10.63
2018-09-06T01:54:41.344Z,11.20
2018-09-06T01:57:09.675Z,11.30
2018-09-06T01:59:39.384Z,11.23
2018-09-06T02:02:08.363Z,11.83
2018-09-06T02:04:37.187Z,10.63
2018-09-06T02:07:05.843Z,11.47
2018-09-06T02:09:34.157Z,11.43
2018-09-06T02:12:02.611Z,10.20
2018-09-06T02:14:30.955Z,11.37
2018-09-06T02:16:59.344Z,10.50
2018-09-06T02:19:27.670Z,10.23
2018-09-06T02:21:55.998Z,11.80
2018-09-06T02:24:24.459Z,12.13
2018-09-06T02:26:52.737Z,12.17
2018-09-06T02:29:21.262Z,12.50
2018-09-06T02:31:49.563Z,12.93
2018-09-06T02:34:17.885Z,12.03
2018-09-06T02:36:46.200Z,11.50
2018-09-06T02:39:14.628Z,12.10
2018-09-06T02:41:42.922Z,11.43
2018-09-06T02:44:11.250Z,12.33
2018-09-06T02:46:39.524Z,11.83
2018-09-06T02:49:07.827Z,12.47
2018-09-06T02:51:36.141Z,12.03
2018-09-06T02:54:04.460Z,12.10
2018-09-06T02:56:32.752Z,11.77
2018-09-06T02:59:01.055Z,11.20
2018-09-06T03:01:29.425Z,11.77
2018-09-06T03:04:04.439Z,11.47
2018-09-06T03:06:32.736Z,11.60
2018-09-06T03:09:01.067Z,10.53
2018-09-06T03:11:34.756Z,10.73
2018-09-06T03:14:03.136Z,11.57
2018-09-06T03:16:31.480Z,11.43
2018-09-06T03:18:59.817Z,11.40
2018-09-06T03:21:28.108Z,11.23
2018-09-06T03:23:56.433Z,10.77
2018-09-06T03:26:24.793Z,11.07
2018-09-06T03:28:53.100Z,10.67
2018-09-06T03:31:21.960Z,11.63
2018-09-06T03:33:50.618Z,12.40
2018-09-06T03:36:18.930Z,11.57
2018-09-06T03:38:47.293Z,12.50
2018-09-06T03:41:15.595Z,12.13
2018-09-06T03:43:43.956Z,12.10
2018-09-06T03:46:12.302Z,12.20
2018-09-06T03:48:40.642Z,11.50
2018-09-06T03:51:08.963Z,12.37
2018-09-06T03:53:37.315Z,12.23
2018-09-06T03:56:05.612Z,12.20
2018-09-06T03:58:33.973Z,12.10
2018-09-06T04:01:02.299Z,11.80
2018-09-06T04:03:30.634Z,12.33
2018-09-06T04:05:58.939Z,12.37
2018-09-06T04:08:27.255Z,12.10
2018-09-06T04:10:55.585Z,12.50
2018-09-06T04:13:23.880Z,11.73
2018-09-06T04:15:52.198Z,13.03
2018-09-06T04:18:20.494Z,12.60
2018-09-06T04:20:48.804Z,12.77
2018-09-06T04:23:17.146Z,12.93
2018-09-06T04:25:45.484Z,12.17
2018-09-06T04:28:13.981Z,12.50
2018-09-06T04:30:42.343Z,12.80
2018-09-06T04:33:10.725Z,13.17
2018-09-06T04:35:39.051Z,13.10
2018-09-06T04:38:07.359Z,13.03
2018-09-06T04:40:35.799Z,14.17
2018-09-06T04:43:04.103Z,13.23
2018-09-06T04:45:32.429Z,12.83
2018-09-06T04:48:00.761Z,13.00
2018-09-06T04:50:29.146Z,12.50
2018-09-06T04:52:57.469Z,12.07
2018-09-06T04:55:25.864Z,12.30
2018-09-06T04:57:54.120Z,13.10
2018-09-06T05:00:22.433Z,12.80
2018-09-06T05:02:50.994Z,13.57
2018-09-06T05:05:19.303Z,13.77
2018-09-06T05:07:47.648Z,13.70
2018-09-06T05:10:15.974Z,14.13
2018-09-06T05:12:44.285Z,14.03
2018-09-06T05:15:12.726Z,13.87
2018-09-06T05:17:41.031Z,14.57
2018-09-06T05:20:09.133Z,14.50
2018-09-06T05:22:37.432Z,14.87
2018-09-06T05:25:05.861Z,15.30
2018-09-06T05:27:34.149Z,15.07
2018-09-06T05:30:02.491Z,14.93
2018-09-06T05:32:30.843Z,15.30
2018-09-06T05:34:59.228Z,15.90
2018-09-06T05:37:27.482Z,14.93
2018-09-06T05:39:55.848Z,14.77
2018-09-06T05:42:24.165Z,14.13
2018-09-06T05:44:52.515Z,12.70
2018-09-06T05:47:20.857Z,14.17
2018-09-06T05:49:49.326Z,14.47
2018-09-06T05:52:17.614Z,13.33
2018-09-06T05:54:45.962Z,14.13
2018-09-06T05:57:14.300Z,14.30
2018-09-06T05:59:42.712Z,12.60
2018-09-06T06:02:10.999Z,12.47
2018-09-06T06:04:39.438Z,11.27
2018-09-06T06:07:07.765Z,11.80
2018-09-06T06:09:36.164Z,12.30
2018-09-06T06:12:04.467Z,11.67
2018-09-06T06:14:32.778Z,12.40
2018-09-06T06:17:01.079Z,11.73
2018-09-06T06:19:29.402Z,13.70
2018-09-06T06:21:57.757Z,14.60
2018-09-06T06:24:26.144Z,13.87
2018-09-06T06:26:54.506Z,13.50
2018-09-06T06:29:22.873Z,14.17
2018-09-06T06:31:51.236Z,13.83
2018-09-06T06:34:19.488Z,14.50
2018-09-06T06:36:48.564Z,14.20
2018-09-06T06:39:16.893Z,13.80
2018-09-06T06:41:45.285Z,13.77
2018-09-06T06:44:13.615Z,12.90
2018-09-06T06:46:41.985Z,12.63
2018-09-06T06:49:10.264Z,13.77
2018-09-06T06:51:38.696Z,13.97
2018-09-06T06:54:06.966Z,11.47
2018-09-06T06:56:36.395Z,11.13
2018-09-06T06:59:04.751Z,10.83
2018-09-06T07:01:33.602Z,10.73
2018-09-06T07:04:02.332Z,11.93
2018-09-06T07:06:30.648Z,11.57
2018-09-06T07:08:59.430Z,11.73
2018-09-06T07:11:27.732Z,12.17
2018-09-06T07:13:56.155Z,11.57
2018-09-06T07:16:24.443Z,12.00
2018-09-06T07:18:52.772Z,12.30
2018-09-06T07:21:21.290Z,13.20
2018-09-06T07:23:49.691Z,13.03
2018-09-06T07:26:18.048Z,12.70
2018-09-06T07:28:46.384Z,13.03
2018-09-06T07:31:14.708Z,12.03
2018-09-06T07:33:43.056Z,12.83
2018-09-06T07:36:11.451Z,12.93
2018-09-06T07:38:39.735Z,12.73
2018-09-06T07:41:08.095Z,13.13
2018-09-06T07:43:36.389Z,13.57
2018-09-06T07:46:04.778Z,13.77
2018-09-06T07:48:33.472Z,12.87
2018-09-06T07:51:02.131Z,13.43
2018-09-06T07:53:30.503Z,13.60
2018-09-06T07:55:58.863Z,12.80
2018-09-06T07:58:27.427Z,13.03
2018-09-06T08:00:55.773Z,12.33
2018-09-06T08:03:24.112Z,11.97
2018-09-06T08:05:52.452Z,12.67
2018-09-06T08:08:20.762Z,11.70
2018-09-06T08:10:49.099Z,11.63
2018-09-06T08:13:17.447Z,12.10
2018-09-06T08:15:45.779Z,12.37
2018-09-06T08:18:14.757Z,11.97
2018-09-06T08:20:43.073Z,12.57
2018-09-06T08:23:11.402Z,11.87
2018-09-06T08:25:40.364Z,12.77
2018-09-06T08:28:08.674Z,13.00
2018-09-06T08:30:37.352Z,12.43
2018-09-06T08:33:05.718Z,10.37
2018-09-06T08:35:34.145Z,11.93
2018-09-06T08:38:03.227Z,12.27
2018-09-06T08:40:31.649Z,11.73
2018-09-06T08:43:07.216Z,12.23
2018-09-06T08:45:35.560Z,12.30
2018-09-06T08:48:03.883Z,11.83
2018-09-06T08:50:32.364Z,12.60
2018-09-06T08:53:00.685Z,12.33
2018-09-06T08:55:28.976Z,13.53
2018-09-06T08:57:57.312Z,12.63
2018-09-06T09:00:25.609Z,11.57
2018-09-06T09:02:54.113Z,11.90
2018-09-06T09:05:22.400Z,12.37
2018-09-06T09:07:51.885Z,13.23
2018-09-06T09:10:23.742Z,12.20
2018-09-06T09:12:52.088Z,12.10
2018-09-06T09:15:20.562Z,12.17
2018-09-06T09:17:48.894Z,13.03
2018-09-06T09:20:18.155Z,12.87
2018-09-06T09:22:46.617Z,12.20
2018-09-06T09:25:14.950Z,12.43
2018-09-06T09:27:49.818Z,12.40
2018-09-06T09:30:18.127Z,12.17
2018-09-06T09:32:46.473Z,12.50
2018-09-06T09:35:14.791Z,15.03
2018-09-06T09:37:43.185Z,13.80
2018-09-06T09:40:11.515Z,12.90
2018-09-06T09:42:39.853Z,12.70
2018-09-06T09:45:08.334Z,13.70
2018-09-06T09:50:04.220Z,11.87
2018-09-06T09:52:32.563Z,12.30
2018-09-06T09:55:04.254Z,13.70
2018-09-06T09:57:32.739Z,13.30
2018-09-06T10:00:01.289Z,13.03
2018-09-06T10:02:33.811Z,13.13
2018-09-06T10:05:07.703Z,13.80
2018-09-06T10:07:41.448Z,14.87
2018-09-06T10:10:09.774Z,15.87
2018-09-06T10:12:38.154Z,15.77
2018-09-06T10:15:06.527Z,14.40
2018-09-06T10:17:35.378Z,14.67
2018-09-06T10:20:03.703Z,14.93
2018-09-06T10:22:32.041Z,15.30
2018-09-06T10:25:00.377Z,14.97
2018-09-06T10:27:28.748Z,14.70
2018-09-06T10:29:57.100Z,15.33
2018-09-06T10:32:25.415Z,16.50
2018-09-06T10:34:53.707Z,15.23
2018-09-06T10:37:22.015Z,14.67
2018-09-06T10:39:50.558Z,15.03
2018-09-06T10:42:18.908Z,15.47
2018-09-06T10:44:47.232Z,15.03
2018-09-06T10:47:15.550Z,15.23
2018-09-06T10:49:43.876Z,15.17
2018-09-06T10:52:12.230Z,15.00
2018-09-06T10:54:40.561Z,15.60
2018-09-06T10:57:09.109Z,14.23
2018-09-06T10:59:37.474Z,14.63
2018-09-06T11:02:06.107Z,15.03
2018-09-06T11:04:34.449Z,15.00
2018-09-06T11:07:02.961Z,14.33
2018-09-06T11:09:31.260Z,15.07
2018-09-06T11:11:59.609Z,15.70
2018-09-06T11:14:28.180Z,14.27
2018-09-06T11:16:56.448Z,13.97
2018-09-06T11:19:24.797Z,13.93
2018-09-06T11:21:53.280Z,14.27
2018-09-06T11:31:20.952Z,13.37
2018-09-06T11:33:49.378Z,13.73
2018-09-06T11:36:17.675Z,14.53
2018-09-06T11:38:46.042Z,13.80
2018-09-06T11:41:14.581Z,14.53
2018-09-06T11:43:43.003Z,13.37
2018-09-06T11:46:11.307Z,14.50
2018-09-06T11:48:39.742Z,13.30
2018-09-06T11:51:08.701Z,14.40
2018-09-06T11:53:37.096Z,13.43
2018-09-06T11:56:05.658Z,13.87
2018-09-06T11:58:34.046Z,14.53
2018-09-06T12:01:02.414Z,14.37
2018-09-06T12:03:30.922Z,15.07
2018-09-06T12:05:59.283Z,12.97
2018-09-06T12:08:27.984Z,13.27
2018-09-06T12:10:56.284Z,13.00
2018-09-06T12:13:24.711Z,14.53
2018-09-06T12:15:53.063Z,14.87
2018-09-06T12:18:21.393Z,15.27
2018-09-06T12:20:49.755Z,12.93
2018-09-06T12:23:18.078Z,14.83
2018-09-06T12:25:46.603Z,14.57
2018-09-06T12:28:14.960Z,13.87
2018-09-06T12:30:43.282Z,12.27
2018-09-06T12:33:11.663Z,13.53
2018-09-06T12:35:39.998Z,12.97
2018-09-06T12:38:08.308Z,14.47
2018-09-06T12:40:36.609Z,14.13
2018-09-06T12:43:04.892Z,13.97
2018-09-06T12:45:33.221Z,14.20
2018-09-06T12:48:01.545Z,14.30
2018-09-06T12:50:29.885Z,14.07
2018-09-06T12:52:58.297Z,15.00
2018-09-06T12:55:26.646Z,14.23
2018-09-06T12:57:54.943Z,15.43
2018-09-06T13:00:23.265Z,15.40
2018-09-06T13:02:51.542Z,14.70
2018-09-06T13:05:19.869Z,16.73
2018-09-06T13:07:48.145Z,15.00
2018-09-06T13:10:16.492Z,14.90
2018-09-06T13:12:44.800Z,15.37
2018-09-06T13:15:13.294Z,13.87
2018-09-06T13:17:41.603Z,14.10
2018-09-06T13:20:09.948Z,14.50
2018-09-06T13:22:38.327Z,14.23
2018-09-06T13:25:06.659Z,15.20
2018-09-06T13:27:34.930Z,14.90
2018-09-06T13:30:03.281Z,13.30
2018-09-06T13:32:31.655Z,12.33
2018-09-06T13:35:00.025Z,12.43
2018-09-06T13:37:28.307Z,11.90
2018-09-06T13:39:56.668Z,11.93
2018-09-06T13:42:25.000Z,12.10
2018-09-06T13:44:53.318Z,12.30
2018-09-06T13:47:21.629Z,10.37
2018-09-06T13:49:50.026Z,9.43
2018-09-06T13:52:18.400Z,11.23
2018-09-06T13:54:46.663Z,12.97
2018-09-06T13:57:14.944Z,12.40
2018-09-06T13:59:43.318Z,15.27
2018-09-06T14:02:11.630Z,14.20
2018-09-06T14:04:40.006Z,14.33
2018-09-06T14:07:08.282Z,14.83
2018-09-06T14:09:36.616Z,15.90
2018-09-06T14:12:05.706Z,17.87
2018-09-06T14:14:34.024Z,17.30
2018-09-06T14:17:02.790Z,18.00
2018-09-06T14:19:31.237Z,17.20
2018-09-06T14:22:00.053Z,18.47
2018-09-06T14:24:28.456Z,19.20
2018-09-06T14:26:56.793Z,18.13
2018-09-06T14:29:25.403Z,18.63
2018-09-06T14:31:53.726Z,18.57
2018-09-06T14:34:22.148Z,19.73
2018-09-06T14:36:50.468Z,19.07
2018-09-06T14:39:18.893Z,19.00
2018-09-06T14:41:47.344Z,22.47
2018-09-06T14:44:15.701Z,22.83
2018-09-06T14:46:44.008Z,22.07
2018-09-06T14:49:12.365Z,21.27
2018-09-06T14:51:40.753Z,19.07
2018-09-06T14:54:09.071Z,19.67
2018-09-06T14:56:37.394Z,18.00
2018-09-06T14:59:05.680Z,18.73
2018-09-06T15:01:34.308Z,19.17
2018-09-06T15:04:02.541Z,19.00
2018-09-06T15:06:30.857Z,19.63
2018-09-06T15:08:59.169Z,18.97
2018-09-06T15:11:27.489Z,18.77
2018-09-06T15:13:55.843Z,20.17
2018-09-06T15:16:24.162Z,19.50
2018-09-06T15:18:52.455Z,19.73
2018-09-06T15:21:20.784Z,18.57
2018-09-06T15:23:49.095Z,17.67
2018-09-06T15:26:17.402Z,22.00
2018-09-06T15:28:45.791Z,20.17
2018-09-06T15:31:14.140Z,19.37
2018-09-06T15:33:42.446Z,19.60
2018-09-06T15:36:10.822Z,18.53
2018-09-06T15:38:39.164Z,19.70
2018-09-06T15:41:07.488Z,17.47
2018-09-06T15:43:36.081Z,17.30
2018-09-06T15:46:04.405Z,15.80
2018-09-06T15:48:32.697Z,17.30
2018-09-06T15:51:01.006Z,15.40
2018-09-06T15:53:29.406Z,17.27
2018-09-06T15:55:57.786Z,17.60
2018-09-06T15:58:26.078Z,16.63
2018-09-06T16:00:54.576Z,18.03
2018-09-06T16:03:22.882Z,17.93
2018-09-06T16:05:51.245Z,17.80
2018-09-06T16:08:19.573Z,17.50
2018-09-06T16:10:47.899Z,17.03
2018-09-06T16:13:16.219Z,17.40
2018-09-06T16:15:45.062Z,17.13
2018-09-06T16:18:13.415Z,17.50
2018-09-06T16:20:41.753Z,16.47
2018-09-06T16:23:10.712Z,16.73
2018-09-06T16:25:39.120Z,16.77
2018-09-06T16:28:07.502Z,17.67
2018-09-06T16:30:35.831Z,18.47
2018-09-06T16:33:04.172Z,17.80
2018-09-06T16:35:32.540Z,18.30
2018-09-06T16:38:00.905Z,17.87
2018-09-06T16:40:29.264Z,18.77
2018-09-06T16:42:57.626Z,19.93
2018-09-06T16:45:26.232Z,19.60
2018-09-06T16:47:54.502Z,21.83
2018-09-06T16:50:22.828Z,18.90
2018-09-06T16:52:51.173Z,19.10
2018-09-06T16:55:19.540Z,18.63
2018-09-06T16:57:47.930Z,18.07
2018-09-06T17:00:16.265Z,17.33
2018-09-06T17:02:44.687Z,16.20
2018-09-06T17:05:13.061Z,17.07
2018-09-06T17:07:41.439Z,14.80
2018-09-06T17:10:09.807Z,14.60
2018-09-06T17:12:38.600Z,14.67
2018-09-06T17:15:06.961Z,13.97
2018-09-06T17:17:35.255Z,13.00
2018-09-06T17:20:03.544Z,12.77
2018-09-06T17:22:31.889Z,12.00
2018-09-06T17:25:00.208Z,14.80
2018-09-06T17:27:28.525Z,12.83
2018-09-06T17:29:56.838Z,14.40
2018-09-06T17:32:25.207Z,13.33
2018-09-06T17:34:53.459Z,12.47
2018-09-06T17:37:21.812Z,11.07
2018-09-06T17:39:50.168Z,11.47
2018-09-06T17:42:18.545Z,11.10
2018-09-06T17:44:46.871Z,11.90
2018-09-06T17:47:15.643Z,10.70
2018-09-06T17:49:44.011Z,11.63
2018-09-06T17:52:12.354Z,11.30
2018-09-06T17:54:40.678Z,10.93
2018-09-06T17:57:09.351Z,10.57
2018-09-06T17:59:37.704Z,11.47
2018-09-06T18:02:06.088Z,11.37
2018-09-06T18:04:34.409Z,11.57
2018-09-06T18:07:02.867Z,12.63
2018-09-06T18:09:31.207Z,13.77
2018-09-06T18:11:59.523Z,13.20
2018-09-06T18:14:27.898Z,13.63
2018-09-06T18:16:56.210Z,14.03
2018-09-06T18:19:24.503Z,14.90
2018-09-06T18:21:52.852Z,14.93
2018-09-06T18:24:21.225Z,13.73
2018-09-06T18:26:49.550Z,14.60
2018-09-06T18:29:17.855Z,15.93
2018-09-06T18:31:46.211Z,16.97
2018-09-06T18:34:14.730Z,17.63
2018-09-06T18:36:43.084Z,16.73
2018-09-06T18:39:11.380Z,16.53
2018-09-06T18:41:39.699Z,16.77
2018-09-06T18:44:08.112Z,17.70
2018-09-06T18:46:36.436Z,17.70
2018-09-06T18:49:04.758Z,16.73
2018-09-06T18:51:33.069Z,17.23
2018-09-06T18:54:01.399Z,16.47
2018-09-06T18:56:29.820Z,16.27
2018-09-06T18:58:58.160Z,17.30
2018-09-06T19:01:26.514Z,17.37
2018-09-06T19:03:54.931Z,16.60
2018-09-06T19:06:23.289Z,17.83
2018-09-06T19:08:51.630Z,18.03
2018-09-06T19:11:20.402Z,18.40
2018-09-06T19:13:48.728Z,17.63
2018-09-06T19:16:17.042Z,18.47
2018-09-06T19:18:45.408Z,18.30
2018-09-06T19:21:13.701Z,17.53
2018-09-06T19:23:42.151Z,19.10
2018-09-06T19:26:10.520Z,18.27
2018-09-06T19:28:38.901Z,18.30
2018-09-06T19:31:14.016Z,18.23
2018-09-06T19:33:42.392Z,19.67
2018-09-06T19:36:10.718Z,19.40
2018-09-06T19:38:39.025Z,17.67
2018-09-06T19:41:07.385Z,18.53
2018-09-06T19:43:35.767Z,19.07
2018-09-06T19:46:04.091Z,19.43
2018-09-06T19:48:32.461Z,20.67
2018-09-06T19:51:00.764Z,20.03
2018-09-06T19:53:29.094Z,21.70
2018-09-06T19:55:57.458Z,21.90
2018-09-06T19:58:25.880Z,20.30
2018-09-06T20:00:54.188Z,20.77
2018-09-06T20:03:22.529Z,21.20
2018-09-06T20:05:50.994Z,20.33
2018-09-06T20:08:19.304Z,21.97
2018-09-06T20:10:47.662Z,24.80
2018-09-06T20:13:16.147Z,23.10
2018-09-06T20:15:44.443Z,23.00
2018-09-06T20:18:12.762Z,24.57
2018-09-06T20:20:41.078Z,25.07
2018-09-06T20:23:09.933Z,26.07
2018-09-06T20:25:38.300Z,25.07
2018-09-06T20:28:06.720Z,23.17
2018-09-06T20:30:35.011Z,24.03
2018-09-06T20:33:03.441Z,24.07
2018-09-06T20:35:31.784Z,24.80
2018-09-06T20:38:00.104Z,25.20
2018-09-06T20:40:28.420Z,23.93
2018-09-06T20:42:57.074Z,25.10
2018-09-06T20:45:25.418Z,25.17
2018-09-06T20:47:54.074Z,25.43
2018-09-06T20:50:22.743Z,24.47
2018-09-06T20:52:51.564Z,26.80
2018-09-06T20:55:20.010Z,25.37
2018-09-06T20:57:48.414Z,25.93
2018-09-06T21:00:17.038Z,25.57
2018-09-06T21:02:45.492Z,25.93
2018-09-06T21:05:13.944Z,27.93
2018-09-06T21:07:42.692Z,28.40
2018-09-06T21:10:11.101Z,26.03
2018-09-06T21:12:40.064Z,25.00
2018-09-06T21:15:09.625Z,26.43
2018-09-06T21:17:39.055Z,25.03
2018-09-06T21:20:07.525Z,24.67
2018-09-06T21:22:35.956Z,24.33
2018-09-06T21:25:04.461Z,23.97
2018-09-06T21:27:33.728Z,23.53
2018-09-06T21:30:02.270Z,24.20
2018-09-06T21:32:31.184Z,29.40
2018-09-06T21:34:59.570Z,27.40
2018-09-06T21:37:28.126Z,25.53
2018-09-06T21:39:56.507Z,26.13
2018-09-06T21:42:25.092Z,25.10
2018-09-06T21:44:53.468Z,25.13
2018-09-06T21:47:21.814Z,26.50
2018-09-06T21:49:50.195Z,25.27
2018-09-06T21:52:18.599Z,27.47
2018-09-06T21:54:46.983Z,26.27
2018-09-06T21:57:15.342Z,26.50
2018-09-06T21:59:43.693Z,25.90
2018-09-06T22:02:17.324Z,26.20
2018-09-06T22:04:45.723Z,24.47
2018-09-06T22:07:14.024Z,24.60
2018-09-06T22:09:42.394Z,25.27
2018-09-06T22:12:16.748Z,24.10
2018-09-06T22:14:46.217Z,23.57
2018-09-06T22:17:14.812Z,22.87
2018-09-06T22:19:43.143Z,23.87
2018-09-06T22:22:11.432Z,23.47
2018-09-06T22:24:40.032Z,23.50
2018-09-06T22:27:08.562Z,24.07
2018-09-06T22:29:37.112Z,23.87
2018-09-06T22:32:05.878Z,23.10
2018-09-06T22:34:34.247Z,23.00
2018-09-06T22:37:02.606Z,23.13
2018-09-06T22:39:31.413Z,23.37
2018-09-06T22:41:59.984Z,24.37
2018-09-06T22:44:28.538Z,22.60
2018-09-06T22:46:56.860Z,23.97
2018-09-06T22:49:25.438Z,24.63
2018-09-06T22:51:53.821Z,25.23
2018-09-06T22:54:22.182Z,25.73
2018-09-06T22:56:50.686Z,25.00
2018-09-06T22:59:19.054Z,25.30
2018-09-06T23:01:47.396Z,23.63
2018-09-06T23:04:15.743Z,25.73
2018-09-06T23:06:44.120Z,24.37
2018-09-06T23:09:12.524Z,25.43
2018-09-06T23:11:40.910Z,24.80
2018-09-06T23:14:09.250Z,25.57
2018-09-06T23:16:37.575Z,25.70
2018-09-06T23:19:06.203Z,25.77
2018-09-06T23:21:34.516Z,26.27
2018-09-06T23:24:03.001Z,25.47
2018-09-06T23:26:31.426Z,25.27
2018-09-06T23:28:59.816Z,25.80
2018-09-06T23:31:28.255Z,27.83
2018-09-06T23:33:56.547Z,26.43
2018-09-06T23:36:24.880Z,27.57
2018-09-06T23:38:53.192Z,28.83
2018-09-06T23:41:21.576Z,27.83
2018-09-06T23:43:49.904Z,27.80
2018-09-06T23:46:18.280Z,24.87
2018-09-06T23:48:46.584Z,26.00
2018-09-06T23:51:14.884Z,25.40
2018-09-06T23:53:43.262Z,27.03
2018-09-06T23:56:11.622Z,27.00
2018-09-06T23:58:39.949Z,27.50
